Airfield :
LOGIN :

Register | Disclaimer

   EN    FR    IT 

 










Legend :    VFR   Marginal VFR   IFR   Intensive IFR   Very Intensive IFR
Visi :
Ceiling :
>= 8 km
>= 3000ft
5 to 8 km
1000 to 3000 ft
1500m to 5 km
500 to 1000 ft
800 to 1500m
200 to 500 ft
< 800m
< 200 ft
Symbols :   Thunderstorms  Fog  Heavy snow  Heavy precipitations  Wind > 20 kt
SIGMETs :     Misc.  Thunderstorms  Icing  Turbulence  Mountain Waves  Volcanic Ashes






- Airport Elevation : 39 ft
- IATA code : ANR


EBAW - Anvers / Antwerpen Deurne

CURRENT METAR :
  • 200050Z AUTO 21011KT 9999 // BKN012/// OVC014/// 08/06 Q1018

EXPIRED METARs :
  • 200020Z AUTO 21010KT 180V240 9999 // BKN011/// OVC013/// 08/06 Q1018
  • 192350Z AUTO 21009KT 9999 // OVC009/// 08/06 Q1018
  • 192320Z AUTO 20011KT 9999 // SCT009/// OVC010/// 07/06 Q1018
  • 192250Z AUTO 20011KT 9999 -SHRA BKN009/// OVC011/// 07/06 Q1019
  • 192220Z AUTO 21009KT 9999 -RA FEW003/// SCT006/// BKN008/// 07/05 Q1019

TAF TAF EBAW
Valid from the 20 at 00:00 until the 20 at 09:00 UTC


192300Z 2000/2009 22012KT 9999 SCT015 BKN030
PROB30
TEMPO 2000/2009 4000 -DZ SCT008 BKN012



MET'MAP, your aeronautical weather chart ! - Copyright ORBIFLY December 2007 - Disclaimer

ORBIFLY MET'MAP TEAM :

Programming & Development : Alexandra Zaïnal
Concept & original design : Baudouin d'Aumeries
Assistance for programming : Marc-Olivier Méhu
Technical & hardware support : Manuel Goepfert

Contact : metmap@orbifly.com




SOURCES & CREDITS :

   NOAA